EVA257Y ZGSZ-VTBS
Flight info
| Callsign | EVA257Y |
|---|---|
| Flight time | 2h 16m |
| Altitude | 38100 |
| Route | TOMUD1 TOMUD R200 BIGRO G221 SAMAS A202 AGPOR/K0874S1220 A202 ASSAD/K0872F400 A202 VILAO/N0471F400 A202 RAMEI W42 PAKRI Y13 RUKSA EASTE1C |
| Aircraft | A339/H-SADE1E2E3GHIJ3J5M1P2RWXY/LB2D1 |
Departure
| Time | 2026-04-23 06:06 |
|---|---|
| Airport | Shenzhen Bao'an International Airport (ZGSZ) |
Arrival
| Time | 2026-04-23 08:23 |
|---|---|
| Airport | Suvarnabhumi Airport (VTBS) |
| Time | Latitude | Longitude | Altitude | Speed | Heading |
|---|---|---|---|---|---|
| 2026-04-23 05:40 | 22.63388 | 113.80903 | 18 ft | 0 kts | 290° |
| 2026-04-23 05:56 | 22.63388 | 113.80904 | 20 ft | 2 kts | 290° |
| 2026-04-23 05:57 | 22.63382 | 113.80921 | 21 ft | 3 kts | 296° |
| 2026-04-23 05:57 | 22.63369 | 113.80955 | 23 ft | 3 kts | 307° |
| 2026-04-23 05:57 | 22.63361 | 113.80967 | 23 ft | 4 kts | 318° |
| 2026-04-23 05:57 | 22.63343 | 113.80983 | 23 ft | 4 kts | 351° |
| 2026-04-23 05:58 | 22.63317 | 113.80985 | 23 ft | 2 kts | 354° |
| 2026-04-23 05:58 | 22.63315 | 113.80985 | 23 ft | 0 kts | 354° |
| 2026-04-23 05:59 | 22.63330 | 113.80983 | 23 ft | 7 kts | 354° |
| 2026-04-23 06:00 | 22.63390 | 113.80972 | 23 ft | 8 kts | 344° |
| 2026-04-23 06:00 | 22.63434 | 113.80956 | 20 ft | 7 kts | 341° |
| 2026-04-23 06:00 | 22.63523 | 113.80917 | 18 ft | 26 kts | 333° |
| 2026-04-23 06:00 | 22.63688 | 113.80845 | 18 ft | 24 kts | 346° |
| 2026-04-23 06:01 | 22.63826 | 113.80797 | 20 ft | 18 kts | 333° |
| 2026-04-23 06:01 | 22.63927 | 113.80742 | 19 ft | 14 kts | 333° |
| 2026-04-23 06:01 | 22.63986 | 113.80661 | 18 ft | 16 kts | 277° |
| 2026-04-23 06:01 | 22.63951 | 113.80545 | 19 ft | 16 kts | 244° |
| 2026-04-23 06:02 | 22.63898 | 113.80433 | 18 ft | 18 kts | 243° |
| 2026-04-23 06:02 | 22.63826 | 113.80279 | 17 ft | 27 kts | 243° |
| 2026-04-23 06:02 | 22.63743 | 113.80100 | 16 ft | 26 kts | 243° |
| 2026-04-23 06:02 | 22.63663 | 113.79925 | 15 ft | 26 kts | 244° |
| 2026-04-23 06:03 | 22.63564 | 113.79772 | 14 ft | 24 kts | 208° |
| 2026-04-23 06:03 | 22.63426 | 113.79813 | 14 ft | 21 kts | 156° |
| 2026-04-23 06:03 | 22.63295 | 113.79881 | 14 ft | 21 kts | 153° |
| 2026-04-23 06:03 | 22.63152 | 113.79959 | 14 ft | 27 kts | 153° |
| 2026-04-23 06:04 | 22.62962 | 113.80065 | 14 ft | 32 kts | 153° |
| 2026-04-23 06:04 | 22.62775 | 113.80164 | 15 ft | 24 kts | 156° |
| 2026-04-23 06:04 | 22.62626 | 113.80246 | 14 ft | 24 kts | 150° |
| 2026-04-23 06:04 | 22.62490 | 113.80303 | 13 ft | 15 kts | 191° |
| 2026-04-23 06:05 | 22.62423 | 113.80216 | 12 ft | 16 kts | 246° |
| 2026-04-23 06:05 | 22.62459 | 113.80125 | 12 ft | 12 kts | 330° |
| 2026-04-23 06:05 | 22.62665 | 113.80010 | 14 ft | 73 kts | 333° |
| 2026-04-23 06:05 | 22.63369 | 113.79623 | 12 ft | 149 kts | 333° |
| 2026-04-23 06:06 | 22.64435 | 113.79016 | 103 ft | 195 kts | 330° |
| 2026-04-23 06:06 | 22.65663 | 113.78240 | 568 ft | 211 kts | 330° |
| 2026-04-23 06:06 | 22.66973 | 113.77511 | 1311 ft | 214 kts | 334° |
| 2026-04-23 06:06 | 22.68337 | 113.76848 | 2134 ft | 221 kts | 330° |
| 2026-04-23 06:07 | 22.69668 | 113.75817 | 2327 ft | 249 kts | 314° |
| 2026-04-23 06:07 | 22.70818 | 113.74357 | 2546 ft | 258 kts | 304° |
| 2026-04-23 06:07 | 22.71815 | 113.72738 | 2765 ft | 259 kts | 302° |
| 2026-04-23 06:07 | 22.72961 | 113.71190 | 2798 ft | 272 kts | 313° |
| 2026-04-23 06:08 | 22.74382 | 113.69771 | 3285 ft | 278 kts | 317° |
| 2026-04-23 06:08 | 22.75842 | 113.68418 | 4136 ft | 274 kts | 317° |
| 2026-04-23 06:08 | 22.77287 | 113.67104 | 4921 ft | 268 kts | 317° |
| 2026-04-23 06:08 | 22.78505 | 113.65558 | 5436 ft | 272 kts | 297° |
| 2026-04-23 06:09 | 22.79119 | 113.63636 | 6093 ft | 269 kts | 276° |
| 2026-04-23 06:09 | 22.78951 | 113.61677 | 6941 ft | 258 kts | 252° |
| 2026-04-23 06:09 | 22.78034 | 113.60044 | 7762 ft | 255 kts | 228° |
| 2026-04-23 06:09 | 22.76558 | 113.58968 | 8316 ft | 266 kts | 204° |
| 2026-04-23 06:10 | 22.74691 | 113.58641 | 8879 ft | 279 kts | 184° |
| 2026-04-23 06:10 | 22.72769 | 113.58447 | 9392 ft | 278 kts | 201° |
| 2026-04-23 06:10 | 22.71076 | 113.57493 | 9592 ft | 272 kts | 223° |
| 2026-04-23 06:10 | 22.69930 | 113.55901 | 9751 ft | 269 kts | 243° |
| 2026-04-23 06:11 | 22.69154 | 113.54038 | 10047 ft | 276 kts | 247° |
| 2026-04-23 06:11 | 22.68317 | 113.52086 | 10204 ft | 295 kts | 244° |
| 2026-04-23 06:11 | 22.67278 | 113.50091 | 10344 ft | 313 kts | 239° |
| 2026-04-23 06:11 | 22.66073 | 113.48081 | 10742 ft | 321 kts | 237° |
| 2026-04-23 06:12 | 22.64796 | 113.46090 | 11312 ft | 323 kts | 236° |
| 2026-04-23 06:12 | 22.63493 | 113.44099 | 11865 ft | 326 kts | 236° |
| 2026-04-23 06:12 | 22.60842 | 113.40053 | 12950 ft | 333 kts | 236° |
| 2026-04-23 06:13 | 22.59503 | 113.38002 | 13538 ft | 335 kts | 236° |
| 2026-04-23 06:13 | 22.58153 | 113.35931 | 14003 ft | 338 kts | 236° |
| 2026-04-23 06:13 | 22.56791 | 113.33842 | 14496 ft | 341 kts | 236° |
| 2026-04-23 06:13 | 22.55416 | 113.31733 | 14973 ft | 343 kts | 236° |
| 2026-04-23 06:14 | 22.54033 | 113.29612 | 15465 ft | 345 kts | 236° |
| 2026-04-23 06:14 | 22.52643 | 113.27480 | 15928 ft | 348 kts | 236° |
| 2026-04-23 06:14 | 22.51262 | 113.25362 | 16378 ft | 351 kts | 236° |
| 2026-04-23 06:14 | 22.49852 | 113.23199 | 16837 ft | 353 kts | 236° |
| 2026-04-23 06:15 | 22.48427 | 113.21016 | 17272 ft | 356 kts | 236° |
| 2026-04-23 06:15 | 22.46993 | 113.18820 | 17709 ft | 359 kts | 236° |
| 2026-04-23 06:15 | 22.45548 | 113.16608 | 18161 ft | 361 kts | 236° |
| 2026-04-23 06:15 | 22.44093 | 113.14381 | 18558 ft | 364 kts | 236° |
| 2026-04-23 06:16 | 22.42629 | 113.12140 | 18941 ft | 366 kts | 236° |
| 2026-04-23 06:16 | 22.41158 | 113.09889 | 19330 ft | 368 kts | 236° |
| 2026-04-23 06:16 | 22.39675 | 113.07623 | 19731 ft | 370 kts | 236° |
| 2026-04-23 06:16 | 22.38182 | 113.05342 | 20140 ft | 373 kts | 236° |
| 2026-04-23 06:17 | 22.36678 | 113.03045 | 20549 ft | 375 kts | 236° |
| 2026-04-23 06:17 | 22.35167 | 113.00738 | 20956 ft | 377 kts | 236° |
| 2026-04-23 06:17 | 22.33648 | 112.98418 | 21377 ft | 379 kts | 236° |
| 2026-04-23 06:17 | 22.32117 | 112.96082 | 21793 ft | 382 kts | 237° |
| 2026-04-23 06:18 | 22.30577 | 112.93733 | 22185 ft | 384 kts | 237° |
| 2026-04-23 06:18 | 22.29050 | 112.91406 | 22580 ft | 387 kts | 237° |
| 2026-04-23 06:18 | 22.27486 | 112.89021 | 22978 ft | 390 kts | 237° |
| 2026-04-23 06:18 | 22.25911 | 112.86624 | 23408 ft | 392 kts | 237° |
| 2026-04-23 06:19 | 22.24326 | 112.84211 | 23772 ft | 394 kts | 237° |
| 2026-04-23 06:19 | 22.22735 | 112.81790 | 24139 ft | 396 kts | 237° |
| 2026-04-23 06:19 | 22.21135 | 112.79357 | 24493 ft | 398 kts | 237° |
| 2026-04-23 06:19 | 22.19530 | 112.76916 | 24828 ft | 400 kts | 237° |
| 2026-04-23 06:20 | 22.17916 | 112.74463 | 25180 ft | 402 kts | 237° |
| 2026-04-23 06:20 | 22.16291 | 112.71994 | 25519 ft | 404 kts | 237° |
| 2026-04-23 06:20 | 22.14678 | 112.69546 | 25843 ft | 407 kts | 237° |
| 2026-04-23 06:20 | 22.13036 | 112.67054 | 26174 ft | 409 kts | 237° |
| 2026-04-23 06:21 | 22.11379 | 112.64541 | 26491 ft | 412 kts | 237° |
| 2026-04-23 06:21 | 22.09716 | 112.62020 | 26819 ft | 414 kts | 237° |
| 2026-04-23 06:21 | 22.08042 | 112.59483 | 27136 ft | 416 kts | 237° |
| 2026-04-23 06:21 | 22.06357 | 112.56930 | 27436 ft | 419 kts | 237° |
| 2026-04-23 06:22 | 22.04660 | 112.54359 | 27759 ft | 421 kts | 237° |
| 2026-04-23 06:22 | 22.02956 | 112.51779 | 28046 ft | 424 kts | 237° |
| 2026-04-23 06:22 | 22.01244 | 112.49190 | 28364 ft | 426 kts | 237° |
| 2026-04-23 06:22 | 21.99520 | 112.46584 | 28670 ft | 428 kts | 237° |
| 2026-04-23 06:23 | 21.97782 | 112.43958 | 28965 ft | 431 kts | 237° |
| 2026-04-23 06:23 | 21.96033 | 112.41317 | 29248 ft | 434 kts | 237° |
| 2026-04-23 06:23 | 21.94277 | 112.38665 | 29558 ft | 436 kts | 237° |
| 2026-04-23 06:23 | 21.92507 | 112.35992 | 29850 ft | 439 kts | 237° |
| 2026-04-23 06:24 | 21.90729 | 112.33310 | 30096 ft | 441 kts | 237° |
| 2026-04-23 06:24 | 21.88965 | 112.30652 | 30396 ft | 443 kts | 237° |
| 2026-04-23 06:24 | 21.87171 | 112.27947 | 30665 ft | 445 kts | 237° |
| 2026-04-23 06:24 | 21.85367 | 112.25230 | 30961 ft | 447 kts | 237° |
| 2026-04-23 06:25 | 21.83552 | 112.22497 | 31266 ft | 449 kts | 237° |
| 2026-04-23 06:25 | 21.81734 | 112.19761 | 31550 ft | 451 kts | 237° |
| 2026-04-23 06:25 | 21.79905 | 112.17011 | 31839 ft | 452 kts | 237° |
| 2026-04-23 06:25 | 21.78068 | 112.14249 | 32100 ft | 454 kts | 237° |
| 2026-04-23 06:26 | 21.76225 | 112.11481 | 32353 ft | 456 kts | 237° |
| 2026-04-23 06:26 | 21.74376 | 112.08704 | 32562 ft | 457 kts | 237° |
| 2026-04-23 06:26 | 21.72518 | 112.05917 | 32763 ft | 459 kts | 237° |
| 2026-04-23 06:26 | 21.70660 | 112.03129 | 32927 ft | 460 kts | 237° |
| 2026-04-23 06:27 | 21.68789 | 112.00324 | 33069 ft | 461 kts | 237° |
| 2026-04-23 06:27 | 21.66915 | 111.97516 | 33229 ft | 462 kts | 237° |
| 2026-04-23 06:27 | 21.65035 | 111.94700 | 33352 ft | 463 kts | 237° |
| 2026-04-23 06:27 | 21.63157 | 111.91888 | 33527 ft | 463 kts | 236° |
| 2026-04-23 06:28 | 21.61305 | 111.89121 | 33702 ft | 462 kts | 236° |
| 2026-04-23 06:28 | 21.59428 | 111.86313 | 33858 ft | 462 kts | 237° |
| 2026-04-23 06:28 | 21.57554 | 111.83513 | 34004 ft | 462 kts | 236° |
| 2026-04-23 06:28 | 21.55540 | 111.80817 | 34130 ft | 463 kts | 231° |
| 2026-04-23 06:29 | 21.53434 | 111.78190 | 34265 ft | 463 kts | 232° |
| 2026-04-23 06:29 | 21.51342 | 111.75561 | 34409 ft | 463 kts | 232° |
| 2026-04-23 06:29 | 21.49252 | 111.72927 | 34563 ft | 462 kts | 232° |
| 2026-04-23 06:29 | 21.47163 | 111.70296 | 34709 ft | 462 kts | 232° |
| 2026-04-23 06:30 | 21.45079 | 111.67672 | 34861 ft | 462 kts | 232° |
| 2026-04-23 06:30 | 21.42993 | 111.65049 | 35012 ft | 462 kts | 232° |
| 2026-04-23 06:30 | 21.40910 | 111.62430 | 35175 ft | 461 kts | 232° |
| 2026-04-23 06:30 | 21.38828 | 111.59815 | 35327 ft | 461 kts | 232° |
| 2026-04-23 06:31 | 21.36745 | 111.57201 | 35495 ft | 460 kts | 232° |
| 2026-04-23 06:31 | 21.34691 | 111.54623 | 35640 ft | 460 kts | 232° |
| 2026-04-23 06:31 | 21.32617 | 111.52021 | 35837 ft | 460 kts | 232° |
| 2026-04-23 06:31 | 21.30537 | 111.49414 | 35999 ft | 459 kts | 232° |
| 2026-04-23 06:32 | 21.28456 | 111.46807 | 36178 ft | 459 kts | 232° |
| 2026-04-23 06:32 | 21.26373 | 111.44198 | 36348 ft | 459 kts | 232° |
| 2026-04-23 06:32 | 21.24298 | 111.41600 | 36533 ft | 459 kts | 232° |
| 2026-04-23 06:32 | 21.22223 | 111.39003 | 36691 ft | 458 kts | 232° |
| 2026-04-23 06:33 | 21.20148 | 111.36408 | 36879 ft | 458 kts | 232° |
| 2026-04-23 06:33 | 21.18100 | 111.33848 | 37047 ft | 458 kts | 232° |
| 2026-04-23 06:33 | 21.16005 | 111.31230 | 37219 ft | 457 kts | 232° |
| 2026-04-23 06:33 | 21.13931 | 111.28639 | 37381 ft | 457 kts | 232° |
| 2026-04-23 06:34 | 21.11862 | 111.26057 | 37548 ft | 457 kts | 232° |
| 2026-04-23 06:34 | 21.09816 | 111.23503 | 37712 ft | 456 kts | 232° |
| 2026-04-23 06:34 | 21.07724 | 111.20894 | 37924 ft | 456 kts | 232° |
| 2026-04-23 06:34 | 21.05657 | 111.18318 | 38069 ft | 456 kts | 232° |
| 2026-04-23 06:35 | 21.03590 | 111.15742 | 38230 ft | 455 kts | 232° |
| 2026-04-23 06:35 | 21.01552 | 111.13204 | 38396 ft | 455 kts | 232° |
| 2026-04-23 06:35 | 20.99487 | 111.10634 | 38526 ft | 455 kts | 232° |
| 2026-04-23 06:35 | 20.97428 | 111.08071 | 38669 ft | 455 kts | 232° |
| 2026-04-23 06:36 | 20.95364 | 111.05505 | 38791 ft | 455 kts | 232° |
| 2026-04-23 06:36 | 20.93308 | 111.02940 | 38822 ft | 454 kts | 232° |
| 2026-04-23 06:36 | 20.89208 | 110.97795 | 38824 ft | 454 kts | 232° |
| 2026-04-23 06:37 | 20.85106 | 110.92652 | 38829 ft | 455 kts | 232° |
| 2026-04-23 06:37 | 20.80999 | 110.87514 | 38825 ft | 455 kts | 232° |
| 2026-04-23 06:38 | 20.76884 | 110.82371 | 38818 ft | 455 kts | 232° |
| 2026-04-23 06:38 | 20.72768 | 110.77233 | 38818 ft | 456 kts | 232° |
| 2026-04-23 06:39 | 20.68665 | 110.72114 | 38826 ft | 456 kts | 232° |
| 2026-04-23 06:39 | 20.64539 | 110.66972 | 38823 ft | 456 kts | 232° |
| 2026-04-23 06:40 | 20.60413 | 110.61833 | 38826 ft | 456 kts | 232° |
| 2026-04-23 06:40 | 20.56285 | 110.56698 | 38826 ft | 455 kts | 232° |
| 2026-04-23 06:41 | 20.52158 | 110.51569 | 38823 ft | 455 kts | 232° |
| 2026-04-23 06:41 | 20.48075 | 110.46419 | 38823 ft | 454 kts | 234° |
| 2026-04-23 06:42 | 20.44109 | 110.41171 | 38824 ft | 454 kts | 234° |
| 2026-04-23 06:42 | 20.40142 | 110.35941 | 38820 ft | 454 kts | 233° |
| 2026-04-23 06:43 | 20.36183 | 110.30757 | 38813 ft | 454 kts | 233° |
| 2026-04-23 06:43 | 20.32192 | 110.25544 | 38813 ft | 454 kts | 233° |
| 2026-04-23 06:44 | 20.28212 | 110.20323 | 38810 ft | 454 kts | 234° |
| 2026-04-23 06:44 | 20.24943 | 110.15945 | 38807 ft | 454 kts | 234° |
| 2026-04-23 06:45 | 20.21010 | 110.10679 | 38811 ft | 454 kts | 234° |
| 2026-04-23 06:45 | 20.17067 | 110.05420 | 38810 ft | 455 kts | 234° |
| 2026-04-23 06:46 | 20.13117 | 110.00161 | 38812 ft | 455 kts | 234° |
| 2026-04-23 06:46 | 20.09162 | 109.94900 | 38815 ft | 455 kts | 234° |
| 2026-04-23 06:47 | 20.05210 | 109.89647 | 38818 ft | 455 kts | 234° |
| 2026-04-23 06:47 | 20.01253 | 109.84393 | 38822 ft | 455 kts | 234° |
| 2026-04-23 06:48 | 19.97320 | 109.79175 | 38821 ft | 455 kts | 234° |
| 2026-04-23 06:48 | 19.93361 | 109.73927 | 38821 ft | 455 kts | 234° |
| 2026-04-23 06:49 | 19.89395 | 109.68674 | 38823 ft | 456 kts | 234° |
| 2026-04-23 06:49 | 19.85426 | 109.63422 | 38825 ft | 456 kts | 234° |
| 2026-04-23 06:50 | 19.81448 | 109.58164 | 38825 ft | 456 kts | 234° |
| 2026-04-23 06:50 | 19.77472 | 109.52912 | 38828 ft | 456 kts | 234° |
| 2026-04-23 06:51 | 19.73495 | 109.47664 | 38833 ft | 456 kts | 234° |
| 2026-04-23 06:51 | 19.69512 | 109.42413 | 38833 ft | 456 kts | 234° |
| 2026-04-23 06:52 | 19.65553 | 109.37198 | 38831 ft | 456 kts | 233° |
| 2026-04-23 06:52 | 19.61568 | 109.31953 | 38833 ft | 456 kts | 234° |
| 2026-04-23 06:53 | 19.57578 | 109.26706 | 38830 ft | 456 kts | 233° |
| 2026-04-23 06:53 | 19.53592 | 109.21468 | 38833 ft | 456 kts | 233° |
| 2026-04-23 06:54 | 19.49597 | 109.16238 | 38830 ft | 456 kts | 233° |
| 2026-04-23 06:54 | 19.45572 | 109.11028 | 38832 ft | 456 kts | 233° |
| 2026-04-23 06:55 | 19.41552 | 109.05821 | 38831 ft | 456 kts | 233° |
| 2026-04-23 06:55 | 19.37532 | 109.00614 | 38830 ft | 456 kts | 233° |
| 2026-04-23 06:56 | 19.33512 | 108.95413 | 38831 ft | 456 kts | 233° |
| 2026-04-23 06:56 | 19.29492 | 108.90215 | 38829 ft | 456 kts | 233° |
| 2026-04-23 06:57 | 19.25495 | 108.85050 | 38828 ft | 456 kts | 233° |
| 2026-04-23 06:57 | 19.21470 | 108.79853 | 38829 ft | 456 kts | 233° |
| 2026-04-23 06:58 | 19.17440 | 108.74651 | 38828 ft | 456 kts | 233° |
| 2026-04-23 06:58 | 19.13416 | 108.69463 | 38831 ft | 456 kts | 233° |
| 2026-04-23 06:59 | 19.09391 | 108.64279 | 38828 ft | 456 kts | 233° |
| 2026-04-23 06:59 | 19.05367 | 108.59101 | 38829 ft | 456 kts | 233° |
| 2026-04-23 07:00 | 19.01346 | 108.53930 | 38828 ft | 455 kts | 233° |
| 2026-04-23 07:00 | 18.97324 | 108.48762 | 38825 ft | 455 kts | 233° |
| 2026-04-23 07:01 | 18.93305 | 108.43602 | 38821 ft | 455 kts | 233° |
| 2026-04-23 07:01 | 18.89278 | 108.38437 | 38821 ft | 455 kts | 233° |
| 2026-04-23 07:02 | 18.85279 | 108.33312 | 38820 ft | 455 kts | 233° |
| 2026-04-23 07:02 | 18.81255 | 108.28158 | 38817 ft | 455 kts | 233° |
| 2026-04-23 07:03 | 18.77227 | 108.23005 | 38818 ft | 455 kts | 233° |
| 2026-04-23 07:03 | 18.73192 | 108.17847 | 38819 ft | 455 kts | 233° |
| 2026-04-23 07:04 | 18.69160 | 108.12697 | 38826 ft | 455 kts | 233° |
| 2026-04-23 07:04 | 18.65120 | 108.07540 | 38821 ft | 455 kts | 233° |
| 2026-04-23 07:05 | 18.61110 | 108.02426 | 38820 ft | 456 kts | 233° |
| 2026-04-23 07:05 | 18.57068 | 107.97275 | 38814 ft | 456 kts | 233° |
| 2026-04-23 07:06 | 18.53020 | 107.92122 | 38816 ft | 456 kts | 233° |
| 2026-04-23 07:06 | 18.48976 | 107.86977 | 38817 ft | 456 kts | 233° |
| 2026-04-23 07:07 | 18.44929 | 107.81833 | 38811 ft | 456 kts | 233° |
| 2026-04-23 07:07 | 18.40876 | 107.76687 | 38813 ft | 456 kts | 233° |
| 2026-04-23 07:08 | 18.36828 | 107.71549 | 38812 ft | 456 kts | 233° |
| 2026-04-23 07:08 | 18.32984 | 107.66269 | 38802 ft | 453 kts | 239° |
| 2026-04-23 07:09 | 18.29647 | 107.60693 | 38801 ft | 453 kts | 240° |
| 2026-04-23 07:09 | 18.26269 | 107.55093 | 38802 ft | 453 kts | 240° |
| 2026-04-23 07:10 | 18.22883 | 107.49498 | 38797 ft | 453 kts | 239° |
| 2026-04-23 07:10 | 18.19491 | 107.43897 | 38791 ft | 454 kts | 239° |
| 2026-04-23 07:11 | 18.16094 | 107.38291 | 38797 ft | 454 kts | 239° |
| 2026-04-23 07:12 | 18.10991 | 107.29880 | 38793 ft | 455 kts | 239° |
| 2026-04-23 07:12 | 18.07603 | 107.24301 | 38793 ft | 456 kts | 239° |
| 2026-04-23 07:13 | 18.04182 | 107.18679 | 38794 ft | 456 kts | 239° |
| 2026-04-23 07:13 | 18.00759 | 107.13062 | 38788 ft | 457 kts | 239° |
| 2026-04-23 07:14 | 17.97329 | 107.07439 | 38788 ft | 457 kts | 239° |
| 2026-04-23 07:14 | 17.93886 | 107.01798 | 38789 ft | 458 kts | 239° |
| 2026-04-23 07:15 | 17.90470 | 106.96206 | 38794 ft | 458 kts | 239° |
| 2026-04-23 07:15 | 17.87025 | 106.90567 | 38793 ft | 458 kts | 239° |
| 2026-04-23 07:16 | 17.83601 | 106.84927 | 38790 ft | 459 kts | 239° |
| 2026-04-23 07:16 | 17.80169 | 106.79277 | 38798 ft | 459 kts | 239° |
| 2026-04-23 07:17 | 17.76733 | 106.73631 | 38797 ft | 459 kts | 239° |
| 2026-04-23 07:17 | 17.73289 | 106.67977 | 38796 ft | 459 kts | 239° |
| 2026-04-23 07:18 | 17.69850 | 106.62337 | 38799 ft | 459 kts | 239° |
| 2026-04-23 07:18 | 17.66407 | 106.56698 | 38798 ft | 459 kts | 239° |
| 2026-04-23 07:19 | 17.62950 | 106.51062 | 38799 ft | 460 kts | 239° |
| 2026-04-23 07:19 | 17.59487 | 106.45419 | 38799 ft | 460 kts | 239° |
| 2026-04-23 07:20 | 17.56020 | 106.39773 | 38803 ft | 461 kts | 239° |
| 2026-04-23 07:20 | 17.52544 | 106.34117 | 38806 ft | 462 kts | 239° |
| 2026-04-23 07:21 | 17.49059 | 106.28449 | 38812 ft | 463 kts | 239° |
| 2026-04-23 07:21 | 17.45564 | 106.22771 | 38819 ft | 464 kts | 239° |
| 2026-04-23 07:22 | 17.42064 | 106.17093 | 38819 ft | 465 kts | 239° |
| 2026-04-23 07:22 | 17.38578 | 106.11437 | 38823 ft | 465 kts | 239° |
| 2026-04-23 07:23 | 17.35075 | 106.05740 | 38826 ft | 466 kts | 239° |
| 2026-04-23 07:23 | 17.31615 | 106.00009 | 38827 ft | 466 kts | 239° |
| 2026-04-23 07:24 | 17.28151 | 105.94274 | 38826 ft | 466 kts | 239° |
| 2026-04-23 07:24 | 17.24675 | 105.88544 | 38817 ft | 466 kts | 239° |
| 2026-04-23 07:25 | 17.21195 | 105.82820 | 38811 ft | 467 kts | 239° |
| 2026-04-23 07:25 | 17.17715 | 105.77083 | 38810 ft | 467 kts | 239° |
| 2026-04-23 07:26 | 17.14231 | 105.71345 | 38808 ft | 467 kts | 239° |
| 2026-04-23 07:26 | 17.10743 | 105.65608 | 38804 ft | 467 kts | 239° |
| 2026-04-23 07:27 | 17.07275 | 105.59911 | 38800 ft | 467 kts | 239° |
| 2026-04-23 07:27 | 17.03783 | 105.54184 | 38803 ft | 467 kts | 239° |
| 2026-04-23 07:28 | 17.00288 | 105.48453 | 38801 ft | 467 kts | 239° |
| 2026-04-23 07:28 | 16.96792 | 105.42726 | 38800 ft | 467 kts | 239° |
| 2026-04-23 07:29 | 16.93296 | 105.37002 | 38799 ft | 467 kts | 239° |
| 2026-04-23 07:29 | 16.89797 | 105.31280 | 38800 ft | 467 kts | 239° |
| 2026-04-23 07:30 | 16.86296 | 105.25557 | 38803 ft | 467 kts | 239° |
| 2026-04-23 07:30 | 16.83385 | 105.20807 | 38802 ft | 468 kts | 238° |
| 2026-04-23 07:31 | 16.79302 | 105.14159 | 38805 ft | 468 kts | 239° |
| 2026-04-23 07:31 | 16.76361 | 105.09374 | 38803 ft | 468 kts | 239° |
| 2026-04-23 07:32 | 16.72846 | 105.03658 | 38804 ft | 468 kts | 239° |
| 2026-04-23 07:32 | 16.69354 | 104.97984 | 38806 ft | 467 kts | 239° |
| 2026-04-23 07:33 | 16.65842 | 104.92280 | 38803 ft | 467 kts | 239° |
| 2026-04-23 07:33 | 16.62322 | 104.86571 | 38803 ft | 468 kts | 239° |
| 2026-04-23 07:34 | 16.58802 | 104.80865 | 38802 ft | 467 kts | 239° |
| 2026-04-23 07:34 | 16.55057 | 104.75327 | 38799 ft | 469 kts | 232° |
| 2026-04-23 07:35 | 16.50702 | 104.70248 | 38799 ft | 469 kts | 229° |
| 2026-04-23 07:35 | 16.46364 | 104.65206 | 38796 ft | 470 kts | 230° |
| 2026-04-23 07:36 | 16.42002 | 104.60128 | 38796 ft | 470 kts | 230° |
| 2026-04-23 07:36 | 16.37632 | 104.55049 | 38796 ft | 471 kts | 230° |
| 2026-04-23 07:37 | 16.33261 | 104.49977 | 38795 ft | 471 kts | 230° |
| 2026-04-23 07:37 | 16.28907 | 104.44920 | 38792 ft | 471 kts | 230° |
| 2026-04-23 07:38 | 16.24522 | 104.39849 | 38786 ft | 472 kts | 229° |
| 2026-04-23 07:38 | 16.20097 | 104.34799 | 38782 ft | 472 kts | 229° |
| 2026-04-23 07:39 | 16.15675 | 104.29754 | 38778 ft | 472 kts | 229° |
| 2026-04-23 07:39 | 16.11252 | 104.24704 | 38771 ft | 472 kts | 229° |
| 2026-04-23 07:40 | 16.06830 | 104.19658 | 38763 ft | 472 kts | 229° |
| 2026-04-23 07:40 | 16.02438 | 104.14596 | 38764 ft | 471 kts | 230° |
| 2026-04-23 07:41 | 15.98086 | 104.09496 | 38754 ft | 471 kts | 230° |
| 2026-04-23 07:41 | 15.93725 | 104.04400 | 38746 ft | 472 kts | 230° |
| 2026-04-23 07:42 | 15.89352 | 103.99306 | 38745 ft | 472 kts | 230° |
| 2026-04-23 07:42 | 15.84972 | 103.94209 | 38745 ft | 473 kts | 230° |
| 2026-04-23 07:43 | 15.80613 | 103.89140 | 38746 ft | 473 kts | 230° |
| 2026-04-23 07:43 | 15.76227 | 103.84042 | 38747 ft | 474 kts | 230° |
| 2026-04-23 07:44 | 15.71831 | 103.78937 | 38744 ft | 474 kts | 230° |
| 2026-04-23 07:44 | 15.67440 | 103.73840 | 38747 ft | 474 kts | 230° |
| 2026-04-23 07:45 | 15.63032 | 103.68727 | 38750 ft | 475 kts | 229° |
| 2026-04-23 07:45 | 15.58627 | 103.63623 | 38756 ft | 475 kts | 229° |
| 2026-04-23 07:46 | 15.54215 | 103.58513 | 38756 ft | 475 kts | 229° |
| 2026-04-23 07:46 | 15.49834 | 103.53443 | 38760 ft | 475 kts | 229° |
| 2026-04-23 07:47 | 15.45392 | 103.48304 | 38761 ft | 475 kts | 229° |
| 2026-04-23 07:47 | 15.41007 | 103.43237 | 38766 ft | 476 kts | 229° |
| 2026-04-23 07:48 | 15.36586 | 103.38131 | 38772 ft | 476 kts | 229° |
| 2026-04-23 07:48 | 15.32163 | 103.33027 | 38775 ft | 476 kts | 229° |
| 2026-04-23 07:49 | 15.27742 | 103.27927 | 38777 ft | 476 kts | 229° |
| 2026-04-23 07:49 | 15.23320 | 103.22829 | 38778 ft | 475 kts | 229° |
| 2026-04-23 07:50 | 15.18896 | 103.17734 | 38776 ft | 475 kts | 229° |
| 2026-04-23 07:50 | 15.14473 | 103.12644 | 38773 ft | 475 kts | 229° |
| 2026-04-23 07:51 | 15.10071 | 103.07581 | 38773 ft | 475 kts | 229° |
| 2026-04-23 07:51 | 15.05480 | 103.02654 | 38766 ft | 476 kts | 222° |
| 2026-04-23 07:52 | 15.00205 | 102.98506 | 38770 ft | 477 kts | 213° |
| 2026-04-23 07:52 | 14.94486 | 102.95007 | 38763 ft | 478 kts | 211° |
| 2026-04-23 07:53 | 14.89192 | 102.90904 | 38765 ft | 476 kts | 227° |
| 2026-04-23 07:53 | 14.85416 | 102.85334 | 38757 ft | 474 kts | 245° |
| 2026-04-23 07:54 | 14.83248 | 102.78923 | 38764 ft | 473 kts | 253° |
| 2026-04-23 07:54 | 14.81272 | 102.72419 | 38769 ft | 474 kts | 253° |
| 2026-04-23 07:55 | 14.79286 | 102.65961 | 38769 ft | 475 kts | 253° |
| 2026-04-23 07:55 | 14.77285 | 102.59460 | 38770 ft | 475 kts | 253° |
| 2026-04-23 07:56 | 14.75281 | 102.52951 | 38776 ft | 475 kts | 253° |
| 2026-04-23 07:56 | 14.73276 | 102.46440 | 38776 ft | 476 kts | 253° |
| 2026-04-23 07:57 | 14.71267 | 102.39928 | 38776 ft | 476 kts | 253° |
| 2026-04-23 07:57 | 14.69255 | 102.33411 | 38777 ft | 476 kts | 253° |
| 2026-04-23 07:58 | 14.67240 | 102.26895 | 38778 ft | 476 kts | 253° |
| 2026-04-23 07:58 | 14.65224 | 102.20378 | 38780 ft | 476 kts | 253° |
| 2026-04-23 07:59 | 14.63196 | 102.13852 | 38415 ft | 477 kts | 253° |
| 2026-04-23 07:59 | 14.62197 | 102.10627 | 37694 ft | 479 kts | 253° |
| 2026-04-23 07:59 | 14.61167 | 102.07295 | 36656 ft | 484 kts | 253° |
| 2026-04-23 07:59 | 14.60149 | 102.04006 | 35454 ft | 490 kts | 253° |
| 2026-04-23 08:00 | 14.59104 | 102.00639 | 34222 ft | 495 kts | 252° |
| 2026-04-23 08:00 | 14.58048 | 101.97242 | 32879 ft | 498 kts | 252° |
| 2026-04-23 08:00 | 14.56989 | 101.93839 | 31495 ft | 500 kts | 253° |
| 2026-04-23 08:00 | 14.55810 | 101.90454 | 30414 ft | 499 kts | 248° |
| 2026-04-23 08:01 | 14.54471 | 101.87161 | 29595 ft | 492 kts | 248° |
| 2026-04-23 08:01 | 14.53173 | 101.83929 | 28995 ft | 484 kts | 248° |
| 2026-04-23 08:01 | 14.51907 | 101.80760 | 28610 ft | 472 kts | 248° |
| 2026-04-23 08:01 | 14.50662 | 101.77642 | 27855 ft | 469 kts | 248° |
| 2026-04-23 08:02 | 14.49425 | 101.74545 | 27268 ft | 463 kts | 248° |
| 2026-04-23 08:02 | 14.48199 | 101.71483 | 26553 ft | 460 kts | 248° |
| 2026-04-23 08:02 | 14.46982 | 101.68446 | 25951 ft | 455 kts | 248° |
| 2026-04-23 08:02 | 14.45774 | 101.65434 | 25296 ft | 452 kts | 248° |
| 2026-04-23 08:03 | 14.44575 | 101.62447 | 24622 ft | 449 kts | 248° |
| 2026-04-23 08:03 | 14.43384 | 101.59480 | 23972 ft | 447 kts | 248° |
| 2026-04-23 08:03 | 14.42200 | 101.56534 | 23310 ft | 444 kts | 248° |
| 2026-04-23 08:03 | 14.41027 | 101.53613 | 22669 ft | 438 kts | 248° |
| 2026-04-23 08:04 | 14.39869 | 101.50732 | 22030 ft | 432 kts | 248° |
| 2026-04-23 08:04 | 14.38726 | 101.47891 | 21406 ft | 426 kts | 248° |
| 2026-04-23 08:04 | 14.37600 | 101.45091 | 20767 ft | 420 kts | 248° |
| 2026-04-23 08:04 | 14.36483 | 101.42315 | 20144 ft | 415 kts | 248° |
| 2026-04-23 08:05 | 14.35384 | 101.39584 | 19500 ft | 411 kts | 248° |
| 2026-04-23 08:05 | 14.34296 | 101.36884 | 18892 ft | 406 kts | 248° |
| 2026-04-23 08:05 | 14.33237 | 101.34255 | 18290 ft | 401 kts | 248° |
| 2026-04-23 08:05 | 14.32173 | 101.31621 | 17825 ft | 391 kts | 247° |
| 2026-04-23 08:06 | 14.30902 | 101.29194 | 17411 ft | 380 kts | 236° |
| 2026-04-23 08:06 | 14.29218 | 101.27131 | 16941 ft | 372 kts | 224° |
| 2026-04-23 08:06 | 14.27259 | 101.25443 | 16720 ft | 367 kts | 219° |
| 2026-04-23 08:06 | 14.25258 | 101.23778 | 16520 ft | 371 kts | 219° |
| 2026-04-23 08:07 | 14.23272 | 101.22097 | 16164 ft | 369 kts | 219° |
| 2026-04-23 08:07 | 14.21302 | 101.20418 | 15779 ft | 365 kts | 219° |
| 2026-04-23 08:07 | 14.19357 | 101.18759 | 15385 ft | 361 kts | 219° |
| 2026-04-23 08:07 | 14.17454 | 101.17135 | 15239 ft | 347 kts | 219° |
| 2026-04-23 08:08 | 14.15636 | 101.15587 | 15069 ft | 332 kts | 219° |
| 2026-04-23 08:08 | 14.13876 | 101.14087 | 14642 ft | 326 kts | 219° |
| 2026-04-23 08:08 | 14.12135 | 101.12605 | 14130 ft | 323 kts | 219° |
| 2026-04-23 08:08 | 14.10446 | 101.11082 | 13450 ft | 324 kts | 227° |
| 2026-04-23 08:09 | 14.09171 | 101.09159 | 12515 ft | 334 kts | 244° |
| 2026-04-23 08:09 | 14.08516 | 101.06764 | 11664 ft | 365 kts | 264° |
| 2026-04-23 08:09 | 14.08693 | 101.04140 | 10822 ft | 370 kts | 283° |
| 2026-04-23 08:09 | 14.09704 | 101.01726 | 10032 ft | 369 kts | 303° |
| 2026-04-23 08:10 | 14.11436 | 100.99804 | 9179 ft | 367 kts | 323° |
| 2026-04-23 08:10 | 14.13718 | 100.98589 | 8345 ft | 380 kts | 342° |
| 2026-04-23 08:10 | 14.18895 | 100.98252 | 6862 ft | 368 kts | 356° |
| 2026-04-23 08:11 | 14.21310 | 100.97649 | 6571 ft | 348 kts | 337° |
| 2026-04-23 08:11 | 14.23298 | 100.96393 | 6372 ft | 325 kts | 319° |
| 2026-04-23 08:11 | 14.24727 | 100.94707 | 6183 ft | 303 kts | 302° |
| 2026-04-23 08:11 | 14.25600 | 100.92813 | 5898 ft | 286 kts | 286° |
| 2026-04-23 08:12 | 14.25927 | 100.90830 | 5404 ft | 276 kts | 270° |
| 2026-04-23 08:12 | 14.25599 | 100.88950 | 5179 ft | 264 kts | 249° |
| 2026-04-23 08:12 | 14.24650 | 100.87359 | 5112 ft | 256 kts | 228° |
| 2026-04-23 08:12 | 14.23272 | 100.86285 | 4922 ft | 245 kts | 206° |
| 2026-04-23 08:13 | 14.21677 | 100.85808 | 4804 ft | 236 kts | 191° |
| 2026-04-23 08:13 | 14.20018 | 100.85619 | 4697 ft | 244 kts | 186° |
| 2026-04-23 08:13 | 14.18318 | 100.85450 | 4577 ft | 244 kts | 188° |
| 2026-04-23 08:13 | 14.16658 | 100.85196 | 4451 ft | 240 kts | 191° |
| 2026-04-23 08:14 | 14.15020 | 100.84869 | 4355 ft | 241 kts | 192° |
| 2026-04-23 08:14 | 14.14486 | 100.84754 | 4305 ft | 242 kts | 192° |
| 2026-04-23 08:14 | 14.13510 | 100.84542 | 4242 ft | 240 kts | 192° |
| 2026-04-23 08:14 | 14.11879 | 100.84177 | 4113 ft | 239 kts | 194° |
| 2026-04-23 08:15 | 14.10263 | 100.83783 | 3988 ft | 239 kts | 195° |
| 2026-04-23 08:15 | 14.08641 | 100.83377 | 3881 ft | 240 kts | 194° |
| 2026-04-23 08:15 | 14.07020 | 100.82984 | 3753 ft | 238 kts | 194° |
| 2026-04-23 08:15 | 14.05404 | 100.82609 | 3632 ft | 239 kts | 194° |
| 2026-04-23 08:16 | 14.03780 | 100.82246 | 3538 ft | 238 kts | 192° |
| 2026-04-23 08:16 | 14.02157 | 100.81911 | 3466 ft | 236 kts | 192° |
| 2026-04-23 08:16 | 14.00550 | 100.81568 | 3490 ft | 236 kts | 192° |
| 2026-04-23 08:16 | 13.98898 | 100.81206 | 3494 ft | 246 kts | 192° |
| 2026-04-23 08:17 | 13.97798 | 100.80969 | 3468 ft | 241 kts | 192° |
| 2026-04-23 08:17 | 13.96191 | 100.80612 | 3480 ft | 233 kts | 192° |
| 2026-04-23 08:17 | 13.94641 | 100.80265 | 3497 ft | 222 kts | 192° |
| 2026-04-23 08:17 | 13.93166 | 100.79919 | 3351 ft | 214 kts | 193° |
| 2026-04-23 08:18 | 13.91729 | 100.79552 | 3103 ft | 212 kts | 194° |
| 2026-04-23 08:18 | 13.90336 | 100.79176 | 3006 ft | 202 kts | 195° |
| 2026-04-23 08:18 | 13.89018 | 100.78814 | 2984 ft | 190 kts | 195° |
| 2026-04-23 08:18 | 13.87765 | 100.78471 | 2971 ft | 183 kts | 194° |
| 2026-04-23 08:19 | 13.86533 | 100.78142 | 2919 ft | 188 kts | 193° |
| 2026-04-23 08:19 | 13.85255 | 100.77824 | 2838 ft | 189 kts | 194° |
| 2026-04-23 08:19 | 13.83989 | 100.77487 | 2712 ft | 186 kts | 194° |
| 2026-04-23 08:19 | 13.82735 | 100.77152 | 2542 ft | 184 kts | 196° |
| 2026-04-23 08:20 | 13.81555 | 100.76811 | 2468 ft | 168 kts | 195° |
| 2026-04-23 08:20 | 13.80477 | 100.76545 | 2364 ft | 152 kts | 194° |
| 2026-04-23 08:20 | 13.79504 | 100.76299 | 2249 ft | 139 kts | 196° |
| 2026-04-23 08:20 | 13.78600 | 100.76046 | 2116 ft | 131 kts | 194° |
| 2026-04-23 08:21 | 13.77607 | 100.75837 | 2011 ft | 170 kts | 190° |
| 2026-04-23 08:21 | 13.76318 | 100.75602 | 1859 ft | 194 kts | 192° |
| 2026-04-23 08:21 | 13.75064 | 100.75311 | 1636 ft | 176 kts | 196° |
| 2026-04-23 08:21 | 13.73926 | 100.74920 | 1189 ft | 170 kts | 201° |
| 2026-04-23 08:22 | 13.72846 | 100.74536 | 822 ft | 163 kts | 198° |
| 2026-04-23 08:22 | 13.71780 | 100.74261 | 492 ft | 152 kts | 192° |
| 2026-04-23 08:22 | 13.70791 | 100.74045 | 239 ft | 139 kts | 193° |
| 2026-04-23 08:22 | 13.69874 | 100.73816 | 60 ft | 136 kts | 194° |
| 2026-04-23 08:23 | 13.69053 | 100.73599 | 19 ft | 88 kts | 195° |
| 2026-04-23 08:23 | 13.68736 | 100.73507 | 18 ft | 23 kts | 195° |
| 2026-04-23 08:23 | 13.68564 | 100.73465 | 18 ft | 25 kts | 194° |
| 2026-04-23 08:23 | 13.68397 | 100.73451 | 18 ft | 23 kts | 176° |
| 2026-04-23 08:24 | 13.68267 | 100.73481 | 21 ft | 11 kts | 161° |
| 2026-04-23 08:24 | 13.68241 | 100.73547 | 19 ft | 13 kts | 66° |
| 2026-04-23 08:24 | 13.68330 | 100.73591 | 19 ft | 16 kts | 16° |
| 2026-04-23 08:24 | 13.68442 | 100.73623 | 19 ft | 18 kts | 15° |
| 2026-04-23 08:25 | 13.68572 | 100.73657 | 19 ft | 20 kts | 14° |
| 2026-04-23 08:25 | 13.68714 | 100.73698 | 19 ft | 20 kts | 17° |
| 2026-04-23 08:25 | 13.68773 | 100.73754 | 19 ft | 12 kts | 73° |
| 2026-04-23 08:25 | 13.68763 | 100.73869 | 20 ft | 23 kts | 104° |
| 2026-04-23 08:26 | 13.68719 | 100.74040 | 20 ft | 22 kts | 105° |
| 2026-04-23 08:26 | 13.68684 | 100.74131 | 21 ft | 13 kts | 130° |
| 2026-04-23 08:26 | 13.68602 | 100.74176 | 19 ft | 13 kts | 137° |
| 2026-04-23 08:26 | 13.68564 | 100.74264 | 19 ft | 14 kts | 107° |
| 2026-04-23 08:27 | 13.68539 | 100.74370 | 19 ft | 16 kts | 103° |
| 2026-04-23 08:27 | 13.68489 | 100.74399 | 20 ft | 5 kts | 204° |
| 2026-04-23 08:27 | 13.68449 | 100.74387 | 19 ft | 7 kts | 197° |
| 2026-04-23 08:27 | 13.68428 | 100.74381 | 19 ft | 0 kts | 196° |